createdAt,value
2019-05-17T00:00:57.516Z,8.22
2019-05-17T00:05:52.315Z,8.11
2019-05-17T00:10:46.913Z,8.10
2019-05-17T00:15:42.115Z,8.12
2019-05-17T00:20:37.511Z,8.07
2019-05-17T00:25:32.270Z,8.13
2019-05-17T00:30:26.918Z,8.08
2019-05-17T00:35:21.550Z,7.92
2019-05-17T00:40:16.955Z,7.81
2019-05-17T00:45:12.054Z,7.88
2019-05-17T00:50:10.023Z,7.75
2019-05-17T00:55:06.980Z,7.68
2019-05-17T01:00:01.555Z,7.62
2019-05-17T01:04:56.816Z,7.52
2019-05-17T01:09:51.759Z,7.49
2019-05-17T01:14:46.746Z,7.48
2019-05-17T01:19:41.644Z,7.40
2019-05-17T01:24:36.842Z,7.47
2019-05-17T01:29:31.764Z,7.33
2019-05-17T01:34:27.263Z,7.42
2019-05-17T01:39:22.146Z,7.41
2019-05-17T01:44:16.916Z,7.23
2019-05-17T01:49:11.509Z,7.06
2019-05-17T01:54:06.815Z,7.02
2019-05-17T01:59:01.574Z,6.97
2019-05-17T02:03:57.484Z,6.92
2019-05-17T02:08:52.839Z,6.85
2019-05-17T02:13:47.597Z,6.77
2019-05-17T02:18:42.192Z,6.66
2019-05-17T02:23:37.339Z,6.62
2019-05-17T02:28:32.220Z,6.56
2019-05-17T02:33:27.864Z,6.65
2019-05-17T02:38:22.632Z,6.66
2019-05-17T02:43:17.188Z,6.50
2019-05-17T02:48:13.406Z,6.58
2019-05-17T02:53:08.178Z,6.52
2019-05-17T02:58:03.690Z,6.41
2019-05-17T03:02:58.758Z,6.47
2019-05-17T03:07:53.392Z,6.44
2019-05-17T03:12:47.980Z,6.43
2019-05-17T03:17:43.812Z,6.36
2019-05-17T03:22:38.753Z,6.30
2019-05-17T03:27:33.867Z,6.18
2019-05-17T03:32:35.465Z,6.14
2019-05-17T03:37:32.539Z,6.06
2019-05-17T03:42:22.747Z,6.07
2019-05-17T03:47:17.434Z,6.01
2019-05-17T03:52:13.532Z,5.94
2019-05-17T03:57:08.353Z,5.98
2019-05-17T04:02:03.468Z,6.04
2019-05-17T04:06:58.295Z,6.17
2019-05-17T04:11:53.651Z,6.53
2019-05-17T04:16:48.551Z,7.03
2019-05-17T04:21:43.312Z,7.58
2019-05-17T04:26:37.908Z,8.34
2019-05-17T04:31:34.643Z,9.04
2019-05-17T04:36:28.822Z,9.67
2019-05-17T04:41:39.616Z,10.69
2019-05-17T04:46:23.344Z,11.55
2019-05-17T04:51:16.080Z,12.46
2019-05-17T04:56:13.686Z,12.80
2019-05-17T05:01:07.069Z,13.30
2019-05-17T05:06:02.991Z,13.67
2019-05-17T05:10:58.158Z,14.46
2019-05-17T05:15:52.755Z,15.44
2019-05-17T05:20:47.358Z,15.98
2019-05-17T05:25:43.021Z,16.08
2019-05-17T05:30:38.065Z,16.21
2019-05-17T05:35:32.804Z,16.44
2019-05-17T05:40:27.383Z,16.77
2019-05-17T05:45:23.878Z,16.89
2019-05-17T05:50:21.816Z,17.19
2019-05-17T05:55:16.266Z,17.71
2019-05-17T06:00:14.556Z,17.37
2019-05-17T06:05:09.367Z,17.62
2019-05-17T06:10:05.016Z,17.54
2019-05-17T06:14:59.619Z,17.60
2019-05-17T06:19:54.250Z,17.59
2019-05-17T06:24:48.856Z,16.76
2019-05-17T06:29:43.498Z,16.49
2019-05-17T06:34:42.070Z,16.43
2019-05-17T06:39:36.148Z,16.87
2019-05-17T06:44:32.502Z,17.19
2019-05-17T06:49:27.440Z,16.70
2019-05-17T06:54:22.071Z,15.97
2019-05-17T06:59:17.856Z,15.51
2019-05-17T07:04:13.244Z,15.63
2019-05-17T07:09:09.882Z,16.04
2019-05-17T07:14:06.150Z,16.37
2019-05-17T07:19:00.730Z,16.30
2019-05-17T07:23:55.405Z,16.21
2019-05-17T07:28:50.223Z,16.16
2019-05-17T07:33:45.045Z,15.43
2019-05-17T07:38:39.801Z,15.65
2019-05-17T07:43:40.306Z,15.95
2019-05-17T07:48:36.908Z,16.31
2019-05-17T07:53:32.821Z,16.37
2019-05-17T07:58:29.883Z,15.90
2019-05-17T08:03:25.147Z,16.33
2019-05-17T08:08:20.812Z,16.46
2019-05-17T08:13:27.366Z,16.36
2019-05-17T08:18:15.376Z,16.68
2019-05-17T08:23:11.539Z,16.49
2019-05-17T08:28:06.149Z,16.85
2019-05-17T08:33:01.005Z,16.68
2019-05-17T08:37:55.660Z,17.04
2019-05-17T08:42:50.345Z,16.90
2019-05-17T08:47:45.073Z,17.22
2019-05-17T08:52:40.387Z,17.11
2019-05-17T08:57:35.092Z,17.02
2019-05-17T09:02:29.952Z,17.02
2019-05-17T09:07:24.978Z,16.93
2019-05-17T09:12:20.672Z,16.40
2019-05-17T09:17:15.426Z,16.61
2019-05-17T09:22:10.473Z,17.00
2019-05-17T09:27:11.819Z,17.14
2019-05-17T09:32:09.528Z,17.80
2019-05-17T09:37:03.970Z,18.18
2019-05-17T09:41:59.564Z,18.63
2019-05-17T09:46:54.349Z,18.90
2019-05-17T09:51:49.673Z,19.19
2019-05-17T09:56:49.716Z,19.71
2019-05-17T10:01:44.348Z,20.13
2019-05-17T10:06:40.070Z,20.18
2019-05-17T10:11:35.563Z,20.26
2019-05-17T10:16:30.743Z,20.36
2019-05-17T10:21:25.971Z,20.70
2019-05-17T10:26:21.701Z,20.54
2019-05-17T10:31:19.707Z,20.81
2019-05-17T10:36:14.377Z,20.66
2019-05-17T10:41:10.142Z,21.15
2019-05-17T10:46:05.408Z,21.37
2019-05-17T10:51:00.575Z,21.01
2019-05-17T10:55:55.471Z,21.13
2019-05-17T11:00:50.324Z,21.20
2019-05-17T11:05:45.004Z,21.66
2019-05-17T11:10:39.713Z,22.09
2019-05-17T11:15:34.324Z,22.89
2019-05-17T11:20:30.253Z,22.35
2019-05-17T11:25:24.917Z,22.65
2019-05-17T11:30:19.898Z,22.07
2019-05-17T11:35:14.654Z,23.00
2019-05-17T11:40:10.485Z,22.47
2019-05-17T11:45:05.771Z,22.20
2019-05-17T11:50:00.384Z,22.41
2019-05-17T11:54:55.066Z,22.25
2019-05-17T11:59:49.906Z,22.25
2019-05-17T12:04:44.521Z,22.22
2019-05-17T12:09:39.114Z,22.02
2019-05-17T12:14:33.701Z,22.39
2019-05-17T12:19:28.436Z,22.48
2019-05-17T12:24:23.097Z,22.06
2019-05-17T12:29:17.689Z,22.15
2019-05-17T12:34:12.319Z,21.85
2019-05-17T12:39:07.871Z,22.03
2019-05-17T12:44:02.497Z,22.18
2019-05-17T12:49:02.905Z,22.70
2019-05-17T12:53:57.808Z,23.07
2019-05-17T12:58:57.491Z,23.07
2019-05-17T13:03:52.132Z,23.44
2019-05-17T13:08:47.503Z,22.15
2019-05-17T13:13:42.144Z,21.56
2019-05-17T13:18:36.748Z,22.33
2019-05-17T13:23:31.376Z,22.53
2019-05-17T13:28:25.993Z,22.80
2019-05-17T13:33:20.684Z,22.63
2019-05-17T13:38:15.290Z,22.27
2019-05-17T13:43:09.991Z,23.26
2019-05-17T13:48:04.655Z,23.42
2019-05-17T13:52:59.787Z,23.72
2019-05-17T13:57:54.389Z,24.15
2019-05-17T14:02:49.244Z,23.98
2019-05-17T14:07:43.828Z,23.76
2019-05-17T14:12:38.500Z,24.21
2019-05-17T14:17:33.580Z,24.25
2019-05-17T14:22:28.200Z,24.21
2019-05-17T14:27:22.800Z,23.78
2019-05-17T14:32:17.414Z,23.46
2019-05-17T14:37:12.461Z,23.26
2019-05-17T14:42:07.145Z,23.20
2019-05-17T14:47:01.845Z,23.48
2019-05-17T14:51:56.441Z,23.05
2019-05-17T14:56:51.043Z,23.41
2019-05-17T15:01:45.638Z,23.20
2019-05-17T15:06:40.231Z,23.41
2019-05-17T15:11:34.971Z,23.29
2019-05-17T15:16:29.621Z,23.54
2019-05-17T15:21:24.259Z,23.88
2019-05-17T15:26:19.118Z,24.16
2019-05-17T15:31:13.730Z,23.62
2019-05-17T15:36:08.407Z,23.22
2019-05-17T15:41:03.186Z,23.50
2019-05-17T15:45:57.759Z,23.88
2019-05-17T15:50:52.441Z,23.74
2019-05-17T15:55:47.119Z,23.71
2019-05-17T16:00:41.853Z,23.74
2019-05-17T16:05:36.526Z,23.52
2019-05-17T16:10:31.124Z,23.39
2019-05-17T16:15:25.716Z,23.20
2019-05-17T16:20:20.549Z,23.21
2019-05-17T16:25:15.349Z,23.09
2019-05-17T16:30:10.886Z,22.84
2019-05-17T16:35:07.056Z,22.49
2019-05-17T16:40:01.663Z,22.25
2019-05-17T16:44:56.358Z,22.09
2019-05-17T16:49:51.062Z,22.06
2019-05-17T16:54:45.645Z,22.26
2019-05-17T16:59:40.257Z,21.85
2019-05-17T17:04:34.862Z,22.15
2019-05-17T17:09:29.758Z,22.04
2019-05-17T17:14:24.438Z,21.84
2019-05-17T17:19:19.171Z,21.67
2019-05-17T17:24:13.758Z,21.13
2019-05-17T17:29:08.428Z,20.58
2019-05-17T17:34:03.039Z,20.75
2019-05-17T17:38:57.608Z,20.82
2019-05-17T17:43:58.674Z,20.80
2019-05-17T17:48:48.584Z,20.92
2019-05-17T17:53:43.187Z,21.01
2019-05-17T17:58:37.790Z,21.05
2019-05-17T18:03:32.363Z,20.56
2019-05-17T18:08:27.038Z,20.42
2019-05-17T18:13:21.644Z,19.76
2019-05-17T18:18:16.331Z,19.60
2019-05-17T18:23:11.096Z,19.50
2019-05-17T18:28:06.971Z,19.48
2019-05-17T18:33:01.700Z,19.15
2019-05-17T18:37:56.367Z,19.02
2019-05-17T18:42:51.102Z,18.99
2019-05-17T18:47:45.834Z,18.69
2019-05-17T18:52:41.817Z,18.41
2019-05-17T18:57:36.739Z,18.23
2019-05-17T19:02:31.409Z,18.07
2019-05-17T19:07:26.059Z,17.83
2019-05-17T19:12:20.663Z,17.68
2019-05-17T19:17:15.264Z,17.43
2019-05-17T19:22:09.867Z,17.21
2019-05-17T19:27:04.519Z,16.93
2019-05-17T19:31:59.130Z,16.85
2019-05-17T19:36:53.724Z,16.99
2019-05-17T19:41:48.364Z,16.94
2019-05-17T19:46:42.959Z,16.98
2019-05-17T19:51:37.545Z,16.99
2019-05-17T19:56:32.187Z,16.94
2019-05-17T20:01:26.813Z,16.78
2019-05-17T20:06:21.647Z,16.59
2019-05-17T20:11:16.231Z,16.19
2019-05-17T20:16:10.827Z,15.85
2019-05-17T20:21:05.520Z,15.53
2019-05-17T20:26:00.108Z,15.40
2019-05-17T20:30:54.755Z,15.24
2019-05-17T20:35:49.427Z,15.08
2019-05-17T20:40:45.117Z,15.07
2019-05-17T20:45:39.719Z,15.02
2019-05-17T20:50:34.310Z,14.89
2019-05-17T20:55:28.902Z,14.78
2019-05-17T21:00:24.376Z,14.80
2019-05-17T21:05:19.406Z,14.81
2019-05-17T21:10:14.296Z,14.81
2019-05-17T21:15:09.912Z,14.72
2019-05-17T21:20:06.706Z,14.74
2019-05-17T21:25:01.347Z,14.63
2019-05-17T21:29:56.128Z,14.68
2019-05-17T21:34:50.723Z,14.64
2019-05-17T21:39:45.315Z,14.56
2019-05-17T21:44:39.983Z,14.53
2019-05-17T21:49:34.592Z,14.48
2019-05-17T21:54:29.193Z,14.42
2019-05-17T21:59:23.771Z,14.54
2019-05-17T22:04:18.377Z,14.56
2019-05-17T22:09:13.207Z,14.46
2019-05-17T22:14:07.790Z,14.41
2019-05-17T22:19:02.391Z,14.43
2019-05-17T22:23:57.003Z,14.45
2019-05-17T22:28:51.652Z,14.46
2019-05-17T22:33:46.293Z,14.45
2019-05-17T22:38:40.884Z,14.44
2019-05-17T22:43:35.486Z,14.41
2019-05-17T22:48:30.065Z,14.37
2019-05-17T22:53:24.699Z,14.33
2019-05-17T22:58:19.346Z,14.31
2019-05-17T23:03:13.956Z,14.31
2019-05-17T23:08:08.531Z,14.29
2019-05-17T23:13:03.224Z,14.25
2019-05-17T23:17:57.925Z,14.16
2019-05-17T23:22:52.523Z,14.14
2019-05-17T23:27:47.105Z,14.16
2019-05-17T23:32:41.704Z,14.09
2019-05-17T23:37:36.314Z,14.03
2019-05-17T23:42:30.924Z,14.03
2019-05-17T23:47:25.505Z,14.00
2019-05-17T23:52:20.098Z,14.01
2019-05-17T23:57:14.708Z,13.99
